NIEUW!!! Volg onze weer- en natuurfoto's op Instagram @ weerstationmaaseik.be

WS Maaseik 1 Meer informatie WS Maaseik 1


WS Maaseik 2 Meer informatie WS Maaseik 2


Regen radar Meer informatie rain snow radar


Bezoek onze andere website:

Vorige versie
weerstation Maaseik


Bezoek ook eens deze sites:

Weerstation Geleen



Het weer levert geen direct gevaar op.    Er zijn geen waarschuwingen afgegeven.

METAR rapporten vliegvelden

   
EBBR - Brussels International Airport, Belgium
Afstand tot: W 14 km
Gewijzigd: 28-11-2020 23:20
Mist, Grotendeels bewolkt  
Mist, Grotendeels bewolkt  
   Wind: ONO 13 km/h
Wind: ONO 13 km/h
Temperatuur: 3°C
Voelt als: -1°C
Dauwpunt: 2°C
Vochtigheid: 93%
Barometer: 1022 hPa
Bewolking: Mostly Cloudy
Zicht: 0.8 km
Bewolking: Grotendeels bewolkt 100 ft
EBBR 282220Z 07007KT 0800 R25L/P2000N R25R/P2000N R01/1900U FG BKN001 03/02 Q1022 TEMPO 1500 BR BKN002
EBBE - Beauvechain (Bevekom), Belgium
Afstand tot: ZZO 17 km
Gewijzigd: 28-11-2020 23:25
Mist, Bewolking  
Mist, Bewolking  
   Wind: ONO 18.5 km/h
Wind: ONO 18.5 km/h
Temperatuur: 3°C
Voelt als: -1°C
Dauwpunt: 3°C
Vochtigheid: 100%
Barometer: 1022 hPa
Bewolking: Overcast
Zicht: 0.2 km
Bewolking: Bewolking 200 ft
EBBE 282225Z AUTO 06010KT 0200 FG OVC002/// 03/03 Q1022 RED
EBDT - Schaffen, Belgium
Afstand tot: ONO 29 km
Gewijzigd: 28-11-2020 23:25
Mist, Bewolking  
Mist, Bewolking  
   Wind: NO 11.1 km/h
Wind: NO 11.1 km/h
Temperatuur: 3°C
Voelt als: 0°C
Dauwpunt: 3°C
Vochtigheid: 100%
Barometer: 1023 hPa
Bewolking: Overcast
Zicht: 0.8 km
Bewolking: Bewolking 100 ft
EBDT 282225Z AUTO 05006KT 0800 FG OVC001/// 03/03 Q1023 RED
EBAW - Antwerp/Deurne, Belgium
Afstand tot: NNW 38 km
Gewijzigd: 28-11-2020 23:20
Nevel, Bewolking  
Nevel, Bewolking  
   Wind: Oosten 16.7 km/h
Wind: Oosten 16.7 km/h
Temperatuur: 3°C
Voelt als: -1°C
Dauwpunt: 2°C
Vochtigheid: 93%
Barometer: 1023 hPa
Bewolking: Overcast
Zicht: 2 km
Bewolking: Bewolking 200 ft
EBAW 282220Z AUTO 09009KT 2000 BR OVC002/// 03/02 Q1023
EBCI - Charleroi/Gosselies, Belgium
Afstand tot: ZZW 51 km
Gewijzigd: 28-11-2020 23:20
Nevel, Gedeeltelijk bewolkt  
Nevel, Gedeeltelijk bewolkt  
   Wind: NO 14.8 km/h
Wind: NO 14.8 km/h
Temperatuur: 2°C
Voelt als: -2°C
Dauwpunt: 2°C
Vochtigheid: 100%
Barometer: 1021 hPa
Bewolking: Partly Cloudy
Zicht: 3 km
Bewolking: Gedeeltelijk bewolkt 300 ft
EBCI 282220Z 05008KT 3000 BR SCT003 02/02 Q1021 TEMPO 2500 BR BKN003
EBLG - Bierset/Liege, Belgium
Afstand tot: OZO 60 km
Gewijzigd: 28-11-2020 23:20
Mist, Grotendeels bewolkt  
Mist, Grotendeels bewolkt  
   Wind: NO 16.7 km/h
Wind: NO 16.7 km/h
Temperatuur: 2°C
Voelt als: -2°C
Dauwpunt: 1°C
Vochtigheid: 93%
Barometer: 1022 hPa
Bewolking: Mostly Cloudy
Zicht: 0.9 km
Bewolking: Gedeeltelijk bewolkt 100 ft,
Grotendeels bewolkt 200 ft
EBLG 282220Z 05009KT 0900 R22L/1900U R22R/1900N R04R/1600N FG SCT001 BKN002 02/01 Q1022 TEMPO 0600 FG BKN001

Script ontwikkeld door  Saratoga-weather.org Aangepast voor de template door  Weerstation Leuven

U vindt ons ook hier:

Het Weer Aktueel

Weather Underground

AWEKAS